createdAt,value
2018-02-05T00:00:09.995Z,97.96
2018-02-05T00:01:09.982Z,97.87
2018-02-05T00:02:09.973Z,97.87
2018-02-05T00:03:09.972Z,97.87
2018-02-05T00:04:09.936Z,97.87
2018-02-05T00:05:09.917Z,97.96
2018-02-05T00:06:09.927Z,97.87
2018-02-05T00:07:09.887Z,97.87
2018-02-05T00:08:09.871Z,97.87
2018-02-05T00:09:09.854Z,97.87
2018-02-05T00:10:09.839Z,97.96
2018-02-05T00:11:09.882Z,97.96
2018-02-05T00:12:09.564Z,98.15
2018-02-05T00:13:09.793Z,97.96
2018-02-05T00:14:09.780Z,98.06
2018-02-05T00:15:09.764Z,97.96
2018-02-05T00:16:09.746Z,98.06
2018-02-05T00:17:09.732Z,97.96
2018-02-05T00:18:09.464Z,97.87
2018-02-05T00:19:09.702Z,97.49
2018-02-05T00:20:09.683Z,97.58
2018-02-05T00:21:09.669Z,97.39
2018-02-05T00:22:09.399Z,97.2
2018-02-05T00:23:09.647Z,97.58
2018-02-05T00:24:09.630Z,98.2
2018-02-05T00:25:09.353Z,98.58
2018-02-05T00:26:09.599Z,97.53
2018-02-05T00:27:09.580Z,98.01
2018-02-05T00:28:09.558Z,98.01
2018-02-05T00:29:09.290Z,98.1
2018-02-05T00:30:09.533Z,98.01
2018-02-05T00:31:09.514Z,98.1
2018-02-05T00:32:09.244Z,98.1
2018-02-05T00:33:09.484Z,98.1
2018-02-05T00:34:09.466Z,98.01
2018-02-05T00:35:09.448Z,98.1
2018-02-05T00:36:09.432Z,97.91
2018-02-05T00:37:09.422Z,97.91
2018-02-05T00:38:09.149Z,98.39
2018-02-05T00:39:09.136Z,98.1
2018-02-05T00:40:09.119Z,98.01
2018-02-05T00:41:09.356Z,97.82
2018-02-05T00:42:09.086Z,97.91
2018-02-05T00:43:09.327Z,98.1
2018-02-05T00:44:09.057Z,98.01
2018-02-05T00:45:09.302Z,97.82
2018-02-05T00:46:09.026Z,97.82
2018-02-05T00:47:09.266Z,97.82
2018-02-05T00:48:09.247Z,98.1
2018-02-05T00:49:09.022Z,98.1
2018-02-05T00:50:09.217Z,98.48
2018-02-05T00:51:09.205Z,98.48
2018-02-05T00:52:08.932Z,98.01
2018-02-05T00:53:09.174Z,97.96
2018-02-05T00:54:08.901Z,98.06
2018-02-05T00:55:09.140Z,98.25
2018-02-05T00:56:09.126Z,97.96
2018-02-05T00:57:08.853Z,98.06
2018-02-05T00:58:09.092Z,98.25
2018-02-05T00:59:08.826Z,97.77
2018-02-05T01:00:08.807Z,97.77
2018-02-05T01:01:09.043Z,97.96
2018-02-05T01:02:09.031Z,97.77
2018-02-05T01:03:09.014Z,97.87
2018-02-05T01:04:08.743Z,97.96
2018-02-05T01:05:08.985Z,97.96
2018-02-05T01:06:08.715Z,98.15
2018-02-05T01:07:08.960Z,98.15
2018-02-05T01:08:08.939Z,97.87
2018-02-05T01:09:08.922Z,98.15
2018-02-05T01:10:08.910Z,98.15
2018-02-05T01:11:08.889Z,97.68
2018-02-05T01:12:08.874Z,97.96
2018-02-05T01:13:08.857Z,97.87
2018-02-05T01:14:08.591Z,98.15
2018-02-05T01:15:08.576Z,97.96
2018-02-05T01:16:08.559Z,97.87
2018-02-05T01:17:08.797Z,98.15
2018-02-05T01:18:08.783Z,98.15
2018-02-05T01:19:08.767Z,98.06
2018-02-05T01:20:08.499Z,98.63
2018-02-05T01:21:08.739Z,98.15
2018-02-05T01:22:08.721Z,98.15
2018-02-05T01:23:08.702Z,97.87
2018-02-05T01:24:08.697Z,98.15
2018-02-05T01:25:08.677Z,98.15
2018-02-05T01:26:08.663Z,98.34
2018-02-05T01:27:08.645Z,97.96
2018-02-05T01:28:08.628Z,97.96
2018-02-05T01:29:08.356Z,97.96
2018-02-05T01:30:08.592Z,97.77
2018-02-05T01:31:08.582Z,98.2
2018-02-05T01:32:08.310Z,98.01
2018-02-05T01:33:08.294Z,98.1
2018-02-05T01:34:08.530Z,97.53
2018-02-05T01:35:08.520Z,97.63
2018-02-05T01:36:08.501Z,98.1
2018-02-05T01:37:08.231Z,98.2
2018-02-05T01:38:08.477Z,98.2
2018-02-05T01:39:08.454Z,98.01
2018-02-05T01:40:08.184Z,98.01
2018-02-05T01:41:08.425Z,98.01
2018-02-05T01:42:08.411Z,98.1
2018-02-05T01:43:08.394Z,98.2
2018-02-05T01:44:08.123Z,97.91
2018-02-05T01:45:08.104Z,98.1
2018-02-05T01:46:08.348Z,98.1
2018-02-05T01:47:08.336Z,98.29
2018-02-05T01:48:08.060Z,98.2
2018-02-05T01:49:08.302Z,98.2
2018-02-05T01:50:08.283Z,97.91
2018-02-05T01:51:08.266Z,97.96
2018-02-05T01:52:07.994Z,98.34
2018-02-05T01:53:07.981Z,98.34
2018-02-05T01:54:08.222Z,98.15
2018-02-05T01:55:08.208Z,98.15
2018-02-05T01:56:07.933Z,98.06
2018-02-05T01:57:08.181Z,98.06
2018-02-05T01:58:08.156Z,98.06
2018-02-05T01:59:08.139Z,98.01
2018-02-05T02:00:08.120Z,97.87
2018-02-05T02:01:08.106Z,97.96
2018-02-05T02:02:08.095Z,97.77
2018-02-05T02:03:08.078Z,98.15
2018-02-05T02:04:08.058Z,97.87
2018-02-05T02:05:07.790Z,98.2
2018-02-05T02:06:08.032Z,98.25
2018-02-05T02:07:08.017Z,98.15
2018-02-05T02:08:08.005Z,98.15
2018-02-05T02:09:07.990Z,98.15
2018-02-05T02:10:07.713Z,98.25
2018-02-05T02:11:07.703Z,97.96
2018-02-05T02:12:07.680Z,97.96
2018-02-05T02:13:07.923Z,98.25
2018-02-05T02:14:07.651Z,98.34
2018-02-05T02:15:07.887Z,98.34
2018-02-05T02:16:07.619Z,98.06
2018-02-05T02:17:07.855Z,98.06
2018-02-05T02:18:07.587Z,98.44
2018-02-05T02:19:07.824Z,98.1
2018-02-05T02:20:07.556Z,98.25
2018-02-05T02:21:07.793Z,97.91
2018-02-05T02:22:07.525Z,98.2
2018-02-05T02:23:07.766Z,98.48
2018-02-05T02:24:07.755Z,97.91
2018-02-05T02:25:07.731Z,97.91
2018-02-05T02:26:07.712Z,97.91
2018-02-05T02:27:07.702Z,97.91
2018-02-05T02:28:07.686Z,97.91
2018-02-05T02:29:07.672Z,98.01
2018-02-05T02:30:07.658Z,97.91
2018-02-05T02:31:07.636Z,98.2
2018-02-05T02:32:07.621Z,98.01
2018-02-05T02:33:07.609Z,98.1
2018-02-05T02:34:07.352Z,98.2
2018-02-05T02:35:07.595Z,97.72
2018-02-05T02:36:07.305Z,98.2
2018-02-05T02:37:07.544Z,98.2
2018-02-05T02:38:07.274Z,98.01
2018-02-05T02:39:07.511Z,98.2
2018-02-05T02:40:07.241Z,98.01
2018-02-05T02:41:07.224Z,97.91
2018-02-05T02:42:07.209Z,98.2
2018-02-05T02:43:07.193Z,98.1
2018-02-05T02:44:07.439Z,98.2
2018-02-05T02:45:07.416Z,97.63
2018-02-05T02:46:07.146Z,98.01
2018-02-05T02:47:07.384Z,98.1
2018-02-05T02:48:07.368Z,98.1
2018-02-05T02:49:07.355Z,98.01
2018-02-05T02:50:07.343Z,98.01
2018-02-05T02:51:07.331Z,98.1
2018-02-05T02:52:07.305Z,98.2
2018-02-05T02:53:07.288Z,97.96
2018-02-05T02:54:07.273Z,98.2
2018-02-05T02:55:07.262Z,98.01
2018-02-05T02:56:07.248Z,97.91
2018-02-05T02:57:07.227Z,98.2
2018-02-05T02:58:07.210Z,97.91
2018-02-05T02:59:07.198Z,97.82
2018-02-05T03:00:07.180Z,98.15
2018-02-05T03:01:06.910Z,98.01
2018-02-05T03:02:06.900Z,98.1
2018-02-05T03:03:07.134Z,97.63
2018-02-05T03:04:07.128Z,98.01
2018-02-05T03:05:07.104Z,97.91
2018-02-05T03:06:07.085Z,98.1
2018-02-05T03:07:07.066Z,97.91
2018-02-05T03:08:07.052Z,98.1
2018-02-05T03:09:07.043Z,98.1
2018-02-05T03:10:07.022Z,97.91
2018-02-05T03:11:07.004Z,98.1
2018-02-05T03:12:06.735Z,98.2
2018-02-05T03:13:06.973Z,98.1
2018-02-05T03:14:06.956Z,98.01
2018-02-05T03:15:06.688Z,98.48
2018-02-05T03:16:06.927Z,98.1
2018-02-05T03:17:06.913Z,98.1
2018-02-05T03:18:06.897Z,98.2
2018-02-05T03:19:06.621Z,98.58
2018-02-05T03:20:06.859Z,98.2
2018-02-05T03:21:06.845Z,98.2
2018-02-05T03:22:06.831Z,97.91
2018-02-05T03:23:06.820Z,98.1
2018-02-05T03:24:06.799Z,98.2
2018-02-05T03:25:06.783Z,97.91
2018-02-05T03:26:06.766Z,98.1
2018-02-05T03:27:06.751Z,98.2
2018-02-05T03:28:06.733Z,98.2
2018-02-05T03:29:06.721Z,98.1
2018-02-05T03:30:06.708Z,98.1
2018-02-05T03:31:06.433Z,98.39
2018-02-05T03:32:06.418Z,98.39
2018-02-05T03:33:06.656Z,97.63
2018-02-05T03:34:06.641Z,98.01
2018-02-05T03:35:06.624Z,97.82
2018-02-05T03:36:06.606Z,97.82
2018-02-05T03:37:06.591Z,97.72
2018-02-05T03:38:06.582Z,98.29
2018-02-05T03:39:06.562Z,97.44
2018-02-05T03:40:06.545Z,97.72
2018-02-05T03:41:06.274Z,97.63
2018-02-05T03:42:06.514Z,98.2
2018-02-05T03:43:06.497Z,98.2
2018-02-05T03:44:06.480Z,98.2
2018-02-05T03:45:06.470Z,98.58
2018-02-05T03:46:06.449Z,98.2
2018-02-05T03:47:06.514Z,98.2
2018-02-05T03:48:06.419Z,98.2
2018-02-05T03:49:06.402Z,98.48
2018-02-05T03:50:06.392Z,98.2
2018-02-05T03:51:06.369Z,98.39
2018-02-05T03:52:06.352Z,98.1
2018-02-05T03:53:06.338Z,98.01
2018-02-05T03:54:06.065Z,98.2
2018-02-05T03:55:06.305Z,98.58
2018-02-05T03:56:06.033Z,98.67
2018-02-05T03:57:06.275Z,98.67
2018-02-05T03:58:06.258Z,98.58
2018-02-05T03:59:06.244Z,98.2
2018-02-05T04:00:06.222Z,98.58
2018-02-05T04:01:05.956Z,98.77
2018-02-05T04:02:05.940Z,98.58
2018-02-05T04:03:06.176Z,98.01
2018-02-05T04:04:06.154Z,97.91
2018-02-05T04:05:06.145Z,98.58
2018-02-05T04:06:06.126Z,98.2
2018-02-05T04:07:06.111Z,98.14
2018-02-05T04:08:06.095Z,98.1
2018-02-05T04:09:05.824Z,98.2
2018-02-05T04:10:06.061Z,98.67
2018-02-05T04:11:06.049Z,98.67
2018-02-05T04:12:06.030Z,98.62
2018-02-05T04:13:06.021Z,98.77
2018-02-05T04:14:05.744Z,98.48
2018-02-05T04:15:05.983Z,98.2
2018-02-05T04:16:05.968Z,98.39
2018-02-05T04:17:05.953Z,98.39
2018-02-05T04:18:05.931Z,98.48
2018-02-05T04:19:05.915Z,98.67
2018-02-05T04:20:05.650Z,98.33
2018-02-05T04:21:05.633Z,98.58
2018-02-05T04:22:05.868Z,98.33
2018-02-05T04:23:05.851Z,98.33
2018-02-05T04:24:05.833Z,98.2
2018-02-05T04:25:05.818Z,98.71
2018-02-05T04:26:05.547Z,98.67
2018-02-05T04:27:05.828Z,99.05
2018-02-05T04:28:05.771Z,98.58
2018-02-05T04:29:05.750Z,98.81
2018-02-05T04:30:05.736Z,98.33
2018-02-05T04:31:05.721Z,98.43
2018-02-05T04:32:05.703Z,98.58
2018-02-05T04:33:05.687Z,98.52
2018-02-05T04:34:05.675Z,98.33
2018-02-05T04:35:05.400Z,98.24
2018-02-05T04:36:05.382Z,98.24
2018-02-05T04:37:05.621Z,98.33
2018-02-05T04:38:05.613Z,98.14
2018-02-05T04:39:05.588Z,98.9
2018-02-05T04:40:05.576Z,98.81
2018-02-05T04:41:05.556Z,98.62
2018-02-05T04:42:05.285Z,98.62
2018-02-05T04:43:05.523Z,98.43
2018-02-05T04:44:05.505Z,98.62
2018-02-05T04:45:05.496Z,99.09
2018-02-05T04:46:05.220Z,99
2018-02-05T04:47:05.459Z,98.9
2018-02-05T04:48:05.443Z,99.09
2018-02-05T04:49:05.429Z,98.71
2018-02-05T04:50:05.407Z,99.09
2018-02-05T04:51:05.393Z,98.96
2018-02-05T04:52:05.373Z,98.67
2018-02-05T04:53:05.358Z,98.67
2018-02-05T04:54:05.344Z,98.58
2018-02-05T04:55:05.323Z,98.77
2018-02-05T04:56:05.311Z,98.67
2018-02-05T04:57:05.296Z,98.96
2018-02-05T04:58:05.275Z,98.58
2018-02-05T04:59:05.258Z,98.86
2018-02-05T05:00:05.250Z,99.05
2018-02-05T05:01:05.229Z,98.29
2018-02-05T05:02:05.210Z,98.77
2018-02-05T05:03:04.938Z,98.39
2018-02-05T05:04:05.179Z,98.39
2018-02-05T05:05:04.906Z,98.39
2018-02-05T05:06:05.143Z,98.48
2018-02-05T05:07:05.129Z,98.29
2018-02-05T05:08:04.861Z,98.1
2018-02-05T05:09:05.096Z,98.2
2018-02-05T05:10:05.078Z,98.39
2018-02-05T05:11:05.064Z,98.58
2018-02-05T05:12:05.049Z,98.39
2018-02-05T05:13:05.030Z,98.29
2018-02-05T05:14:05.017Z,97.91
2018-02-05T05:15:04.746Z,97.91
2018-02-05T05:16:04.737Z,98.1
2018-02-05T05:17:04.965Z,98.1
2018-02-05T05:18:04.953Z,98.2
2018-02-05T05:19:04.681Z,97.91
2018-02-05T05:20:04.919Z,97.82
2018-02-05T05:21:04.901Z,97.63
2018-02-05T05:22:04.887Z,97.91
2018-02-05T05:23:04.868Z,98.1
2018-02-05T05:24:04.856Z,98.01
2018-02-05T05:25:04.834Z,98.2
2018-02-05T05:26:04.832Z,98.2
2018-02-05T05:27:04.805Z,98.2
2018-02-05T05:28:04.793Z,98.1
2018-02-05T05:29:04.830Z,98.2
2018-02-05T05:30:04.763Z,97.63
2018-02-05T05:31:04.738Z,97.72
2018-02-05T05:32:04.725Z,98.29
2018-02-05T05:33:04.715Z,97.53
2018-02-05T05:34:04.690Z,97.72
2018-02-05T05:35:04.679Z,97.67
2018-02-05T05:36:04.670Z,98.1
2018-02-05T05:37:04.645Z,98.24
2018-02-05T05:38:04.624Z,98.33
2018-02-05T05:39:04.610Z,98.05
2018-02-05T05:40:04.596Z,98.24
2018-02-05T05:41:04.583Z,98.14
2018-02-05T05:42:04.562Z,98.05
2018-02-05T05:43:04.548Z,98.43
2018-02-05T05:44:04.530Z,98.43
2018-02-05T05:45:04.514Z,98.14
2018-02-05T05:46:04.498Z,97.96
2018-02-05T05:47:04.479Z,98.24
2018-02-05T05:48:04.462Z,98.14
2018-02-05T05:49:04.449Z,98.33
2018-02-05T05:50:04.178Z,98.14
2018-02-05T05:51:04.422Z,98.52
2018-02-05T05:52:04.147Z,98.71
2018-02-05T05:53:04.380Z,98.52
2018-02-05T05:54:04.363Z,98.52
2018-02-05T05:55:04.348Z,98.52
2018-02-05T05:56:04.331Z,98.43
2018-02-05T05:57:04.320Z,98.33
2018-02-05T05:58:04.297Z,98.33
2018-02-05T05:59:04.281Z,98.9
2018-02-05T06:00:04.263Z,98.9
2018-02-05T06:01:04.247Z,99
2018-02-05T06:02:04.232Z,99
2018-02-05T06:03:04.220Z,98.81
2018-02-05T06:04:04.200Z,98.81
2018-02-05T06:05:04.182Z,98.81
2018-02-05T06:06:04.167Z,99
2018-02-05T06:07:04.148Z,98.9
2018-02-05T06:08:04.131Z,99
2018-02-05T06:09:04.120Z,99.19
2018-02-05T06:10:03.843Z,99
2018-02-05T06:11:04.083Z,99
2018-02-05T06:12:03.810Z,98.62
2018-02-05T06:13:04.099Z,98.71
2018-02-05T06:14:04.029Z,98.9
2018-02-05T06:15:04.075Z,98.9
2018-02-05T06:16:03.996Z,98.33
2018-02-05T06:17:03.980Z,98.24
2018-02-05T06:18:03.963Z,98.43
2018-02-05T06:19:03.943Z,98.43
2018-02-05T06:20:03.674Z,98.71
2018-02-05T06:21:03.920Z,98.43
2018-02-05T06:22:03.898Z,98.71
2018-02-05T06:23:03.625Z,98.62
2018-02-05T06:24:03.868Z,98.9
2018-02-05T06:25:03.853Z,98.62
2018-02-05T06:26:03.835Z,98.62
2018-02-05T06:27:03.813Z,98.33
2018-02-05T06:28:03.794Z,98.33
2018-02-05T06:29:03.777Z,98.9
2018-02-05T06:30:03.507Z,98.43
2018-02-05T06:31:03.748Z,98.33
2018-02-05T06:32:03.731Z,98.24
2018-02-05T06:33:03.718Z,98.43
2018-02-05T06:34:03.691Z,98.9
2018-02-05T06:35:03.679Z,98.33
2018-02-05T06:36:03.664Z,98.33
2018-02-05T06:37:03.648Z,98.33
2018-02-05T06:38:03.632Z,99.09
2018-02-05T06:39:03.613Z,98.43
2018-02-05T06:40:03.596Z,98.62
2018-02-05T06:41:03.585Z,99
2018-02-05T06:42:03.560Z,98.33
2018-02-05T06:43:03.544Z,98.43
2018-02-05T06:44:03.533Z,99
2018-02-05T06:45:03.258Z,98.33
2018-02-05T06:46:03.498Z,98.9
2018-02-05T06:47:03.222Z,98.71
2018-02-05T06:48:03.462Z,98.43
2018-02-05T06:49:03.445Z,98.71
2018-02-05T06:50:03.176Z,98.43
2018-02-05T06:51:03.410Z,98.71
2018-02-05T06:52:03.397Z,98.62
2018-02-05T06:53:03.377Z,98.52
2018-02-05T06:54:03.360Z,98.24
2018-02-05T06:55:03.102Z,98.43
2018-02-05T06:56:03.329Z,98.43
2018-02-05T06:57:03.311Z,98.71
2018-02-05T06:58:03.040Z,98.43
2018-02-05T06:59:03.277Z,98.52
2018-02-05T07:00:03.258Z,98.52
2018-02-05T07:01:03.247Z,98.33
2018-02-05T07:02:02.972Z,98.24
2018-02-05T07:03:03.209Z,98.9
2018-02-05T07:04:03.197Z,98.33
2018-02-05T07:05:02.925Z,98.33
2018-02-05T07:06:03.186Z,98.33
2018-02-05T07:07:03.142Z,99
2018-02-05T07:08:02.877Z,98.33
2018-02-05T07:09:03.111Z,98.52
2018-02-05T07:10:03.098Z,98.33
2018-02-05T07:11:03.079Z,98.43
2018-02-05T07:12:03.085Z,98.52
2018-02-05T07:13:03.047Z,98.52
2018-02-05T07:14:03.033Z,98.43
2018-02-05T07:15:03.012Z,98.05
2018-02-05T07:16:02.996Z,98.71
2018-02-05T07:17:02.979Z,98.43
2018-02-05T07:18:02.966Z,98.62
2018-02-05T07:19:02.947Z,98.33
2018-02-05T07:20:02.931Z,98.33
2018-02-05T07:21:02.656Z,98.33
2018-02-05T07:22:02.890Z,98.33
2018-02-05T07:23:02.874Z,98.33
2018-02-05T07:24:02.858Z,98.43
2018-02-05T07:25:02.845Z,98.62
2018-02-05T07:26:02.829Z,98.43
2018-02-05T07:27:02.807Z,98.33
2018-02-05T07:28:02.796Z,98.9
2018-02-05T07:29:02.778Z,98.62
2018-02-05T07:30:02.770Z,98.33
2018-02-05T07:31:02.744Z,98.33
2018-02-05T07:32:02.728Z,98.52
2018-02-05T07:33:02.774Z,98.67
2018-02-05T07:34:02.696Z,98.29
2018-02-05T07:35:02.678Z,98.48
2018-02-05T07:36:02.660Z,98.2
2018-02-05T07:37:02.391Z,98.01
2018-02-05T07:38:02.635Z,98.58
2018-02-05T07:39:02.618Z,97.91
2018-02-05T07:40:02.345Z,98.01
2018-02-05T07:41:02.595Z,97.82
2018-02-05T07:42:02.311Z,98.01
2018-02-05T07:43:02.552Z,98.39
2018-02-05T07:44:02.279Z,97.63
2018-02-05T07:45:02.518Z,97.25
2018-02-05T07:46:02.500Z,97.53
2018-02-05T07:47:02.485Z,97.63
2018-02-05T07:48:02.473Z,98.01
2018-02-05T07:49:02.460Z,97.63
2018-02-05T07:50:02.448Z,97.63
2018-02-05T07:51:02.170Z,98.39
2018-02-05T07:52:02.410Z,97.44
2018-02-05T07:53:02.398Z,97.25
2018-02-05T07:54:02.388Z,97.25
2018-02-05T07:55:02.146Z,97.34
2018-02-05T07:56:02.372Z,98.01
2018-02-05T07:57:02.325Z,97.63
2018-02-05T07:58:02.314Z,98.25
2018-02-05T07:59:02.295Z,97.68
2018-02-05T08:00:02.295Z,97.49
2018-02-05T08:01:02.265Z,97.49
2018-02-05T08:02:02.256Z,97.3
2018-02-05T08:03:01.981Z,97.58
2018-02-05T08:04:02.219Z,96.92
2018-02-05T08:05:01.953Z,97.11
2018-02-05T08:06:01.936Z,96.92
2018-02-05T08:07:02.172Z,96.97
2018-02-05T08:08:02.248Z,97.35
2018-02-05T08:09:02.142Z,97.16
2018-02-05T08:10:02.126Z,96.97
2018-02-05T08:11:01.863Z,96.59
2018-02-05T08:12:02.106Z,96.59
2018-02-05T08:13:02.084Z,96.69
2018-02-05T08:14:01.818Z,96.78
2018-02-05T08:15:02.053Z,97.16
2018-02-05T08:16:02.042Z,97.16
2018-02-05T08:17:02.028Z,96.31
2018-02-05T08:18:02.012Z,96.4
2018-02-05T08:19:02.013Z,95.83
2018-02-05T08:20:02.021Z,96.02
2018-02-05T08:21:01.716Z,96.5
2018-02-05T08:22:01.702Z,96.36
2018-02-05T08:23:01.688Z,96.64
2018-02-05T08:24:01.926Z,96.59
2018-02-05T08:25:01.912Z,96.07
2018-02-05T08:26:01.993Z,95.64
2018-02-05T08:27:01.880Z,95.83
2018-02-05T08:28:01.617Z,96.17
2018-02-05T08:29:01.854Z,95.55
2018-02-05T08:30:01.845Z,96.5
2018-02-05T08:31:01.826Z,96.31
2018-02-05T08:32:01.814Z,96.55
2018-02-05T08:33:01.803Z,96.69
2018-02-05T08:34:01.785Z,95.93
2018-02-05T08:35:01.516Z,95.55
2018-02-05T08:36:01.503Z,96.31
2018-02-05T08:37:01.744Z,95.74
2018-02-05T08:38:01.728Z,95.93
2018-02-05T08:39:01.712Z,95.74
2018-02-05T08:40:01.712Z,95.93
2018-02-05T08:41:01.432Z,96.12
2018-02-05T08:42:01.417Z,96.69
2018-02-05T08:43:01.403Z,97.16
2018-02-05T08:44:01.415Z,97.25
2018-02-05T08:45:01.627Z,96.97
2018-02-05T08:46:01.617Z,97.16
2018-02-05T08:47:01.608Z,97.54
2018-02-05T08:48:01.346Z,97.54
2018-02-05T08:49:01.572Z,97.35
2018-02-05T08:50:01.560Z,97.35
2018-02-05T08:51:01.288Z,97.06
2018-02-05T08:52:01.532Z,97.25
2018-02-05T08:53:01.513Z,97.25
2018-02-05T08:54:01.500Z,97.25
2018-02-05T08:55:01.485Z,97.16
2018-02-05T08:56:01.470Z,97.35
2018-02-05T08:57:01.456Z,97.16
2018-02-05T08:58:01.446Z,97.35
2018-02-05T08:59:01.174Z,96.21
2018-02-05T09:00:01.420Z,96.78
2018-02-05T09:01:01.402Z,97.25
2018-02-05T09:02:01.385Z,97.35
2018-02-05T09:03:01.372Z,97.16
2018-02-05T09:04:01.359Z,96.88
2018-02-05T09:05:01.341Z,97.16
2018-02-05T09:06:01.073Z,96.97
2018-02-05T09:07:01.332Z,96.97
2018-02-05T09:08:01.299Z,97.21
2018-02-05T09:09:01.285Z,95.88
2018-02-05T09:10:01.292Z,96.26
2018-02-05T09:11:01.273Z,96.55
2018-02-05T09:12:01.250Z,96.07
2018-02-05T09:13:01.236Z,95.41
2018-02-05T09:14:01.245Z,96.26
2018-02-05T09:15:01.204Z,95.98
2018-02-05T09:16:01.187Z,95.69
2018-02-05T09:17:01.171Z,95.88
2018-02-05T09:18:00.905Z,96.17
2018-02-05T09:19:01.145Z,95.41
2018-02-05T09:20:01.133Z,96.26
2018-02-05T09:21:01.122Z,95.41
2018-02-05T09:22:01.101Z,93.99
2018-02-05T09:23:00.856Z,93.42
2018-02-05T09:24:01.078Z,93.7
2018-02-05T09:25:01.071Z,94.27
2018-02-05T09:26:01.049Z,94.74
2018-02-05T09:27:01.036Z,95.41
2018-02-05T09:28:01.023Z,95.03
2018-02-05T09:29:00.754Z,93.99
2018-02-05T09:30:00.994Z,93.13
2018-02-05T09:31:00.730Z,93.04
2018-02-05T09:33:00.956Z,93.42
2018-02-05T09:34:00.966Z,93.32
2018-02-05T09:35:00.929Z,93.04
2018-02-05T09:36:00.915Z,94.18
2018-02-05T09:37:00.650Z,94.27
2018-02-05T09:38:00.636Z,95.31
2018-02-05T09:39:00.623Z,95.5
2018-02-05T09:40:00.861Z,94.27
2018-02-05T09:41:00.848Z,94.46
2018-02-05T09:42:00.841Z,95.12
2018-02-05T09:43:00.575Z,94.27
2018-02-05T09:44:00.809Z,94.56
2018-02-05T09:45:00.798Z,94.46
2018-02-05T09:46:00.986Z,92.94
2018-02-05T09:47:00.769Z,93.13
2018-02-05T09:48:00.761Z,94.46
2018-02-05T09:49:00.749Z,94.74
2018-02-05T09:50:00.729Z,94.27
2018-02-05T09:51:00.719Z,94.84
2018-02-05T09:52:00.743Z,94.93
2018-02-05T09:53:00.691Z,93.89
2018-02-05T09:54:00.423Z,94.27
2018-02-05T09:55:00.674Z,95.26
2018-02-05T09:56:00.652Z,94.51
2018-02-05T09:57:00.636Z,94.42
2018-02-05T09:58:00.622Z,94.7
2018-02-05T09:59:00.356Z,95.45
2018-02-05T10:00:00.623Z,95.93
2018-02-05T10:01:00.586Z,96.21
2018-02-05T10:02:00.565Z,96.02
2018-02-05T10:03:00.550Z,96.4
2018-02-05T10:04:00.537Z,96.97
2018-02-05T10:05:00.580Z,96.59
2018-02-05T10:06:00.258Z,97.16
2018-02-05T10:07:00.495Z,96.97
2018-02-05T10:08:00.485Z,97.92
2018-02-05T10:09:00.476Z,98.3
2018-02-05T10:10:00.475Z,98.39
2018-02-05T10:11:00.445Z,98.01
2018-02-05T10:12:00.423Z,97.92
2018-02-05T10:13:00.409Z,97.54
2018-02-05T10:14:00.394Z,97.92
2018-02-05T10:15:00.380Z,97.63
2018-02-05T10:16:00.365Z,97.92
2018-02-05T10:17:00.356Z,98.25
2018-02-05T10:18:00.341Z,98.72
2018-02-05T10:19:00.325Z,98.16
2018-02-05T10:20:00.308Z,98.63
2018-02-05T10:21:00.301Z,97.87
2018-02-05T10:22:00.282Z,97.97
2018-02-05T10:23:00.025Z,97.97
2018-02-05T10:24:00.256Z,97.3
2018-02-05T10:24:59.986Z,96.17
2018-02-05T10:26:00.228Z,95.88
2018-02-05T10:26:59.966Z,96.45
2018-02-05T10:28:00.200Z,96.07
2018-02-05T10:29:00.183Z,96.07
2018-02-05T10:30:00.168Z,96.17
2018-02-05T10:31:00.155Z,95.6
2018-02-05T10:32:00.158Z,94.56
2018-02-05T10:33:00.127Z,95.22
2018-02-05T10:34:00.116Z,93.42
2018-02-05T10:35:00.116Z,93.7
2018-02-05T10:36:00.085Z,94.65
2018-02-05T10:37:00.092Z,95.5
2018-02-05T10:38:00.063Z,95.22
2018-02-05T10:39:00.050Z,95.79
2018-02-05T10:39:59.781Z,95.41
2018-02-05T10:41:00.029Z,94.65
2018-02-05T10:41:59.749Z,94.08
2018-02-05T10:42:59.778Z,94.56
2018-02-05T10:43:59.730Z,95.69
2018-02-05T10:44:59.961Z,95.12
2018-02-05T10:45:59.953Z,95.31
2018-02-05T10:46:59.934Z,94.74
2018-02-05T10:47:59.918Z,94.37
2018-02-05T10:48:59.922Z,94.37
2018-02-05T10:50:14.554Z,94.08
2018-02-05T10:50:59.880Z,92.76
2018-02-05T10:51:59.871Z,92.57
2018-02-05T10:52:59.846Z,93.42
2018-02-05T10:53:59.834Z,94.18
2018-02-05T10:54:59.568Z,93.13
2018-02-05T10:55:59.554Z,93.42
2018-02-05T10:56:59.819Z,92.47
2018-02-05T10:58:14.442Z,92.04
2018-02-05T10:58:59.766Z,92.09
2018-02-05T10:59:59.749Z,91.85
2018-02-05T11:00:59.738Z,91.09
2018-02-05T11:01:59.737Z,90.81
2018-02-05T11:02:59.710Z,90.53
2018-02-05T11:03:59.441Z,90.62
2018-02-05T11:04:59.682Z,90.34
2018-02-05T11:05:59.671Z,91.76
2018-02-05T11:06:59.659Z,92.9
2018-02-05T11:07:59.638Z,91.95
2018-02-05T11:08:59.625Z,91.85
2018-02-05T11:09:59.610Z,92.61
2018-02-05T11:10:59.598Z,92.71
2018-02-05T11:11:59.584Z,91.47
2018-02-05T11:12:59.331Z,90.53
2018-02-05T11:13:59.560Z,90.72
2018-02-05T11:14:59.543Z,90.81
2018-02-05T11:15:59.537Z,91.66
2018-02-05T11:16:59.267Z,90.43
2018-02-05T11:17:59.506Z,90.67
2018-02-05T11:18:59.503Z,90.1
2018-02-05T11:19:59.485Z,89.91
2018-02-05T11:20:59.212Z,90
2018-02-05T11:21:59.198Z,90.57
2018-02-05T11:22:59.487Z,89.81
2018-02-05T11:23:59.429Z,89.53
2018-02-05T11:24:59.412Z,88.68
2018-02-05T11:25:59.146Z,88.01
2018-02-05T11:26:59.390Z,88.1
2018-02-05T11:27:59.127Z,90.43
2018-02-05T11:28:59.362Z,90.14
2018-02-05T11:29:59.097Z,88.62
2018-02-05T11:30:59.339Z,88.91
2018-02-05T11:31:59.331Z,90.52
2018-02-05T11:32:59.317Z,89
2018-02-05T11:33:59.332Z,88.81
2018-02-05T11:34:59.043Z,87.2
2018-02-05T11:35:59.283Z,86.07
2018-02-05T11:36:59.269Z,85.4
2018-02-05T11:37:59.258Z,85.97
2018-02-05T11:38:59.246Z,85.78
2018-02-05T11:39:59.233Z,86.07
2018-02-05T11:40:59.220Z,84.07
2018-02-05T11:41:58.953Z,82.04
2018-02-05T11:42:58.938Z,81.47
2018-02-05T11:43:59.180Z,82.51
2018-02-05T11:44:58.919Z,83.94
2018-02-05T11:45:59.179Z,84.31
2018-02-05T11:46:59.141Z,85.03
2018-02-05T11:47:59.137Z,87.12
2018-02-05T11:48:59.139Z,86.45
2018-02-05T11:49:59.117Z,86.35
2018-02-05T11:50:58.839Z,85.88
2018-02-05T11:51:59.092Z,86.93
2018-02-05T11:52:59.072Z,87.68
2018-02-05T11:53:59.054Z,88.73
2018-02-05T11:54:59.040Z,89.77
2018-02-05T11:55:59.040Z,90.62
2018-02-05T11:56:59.014Z,89.77
2018-02-05T11:57:59.001Z,88.92
2018-02-05T11:58:58.735Z,88.44
2018-02-05T11:59:58.976Z,85.93
2018-02-05T12:00:58.961Z,85.27
2018-02-05T12:01:58.948Z,85.08
2018-02-05T12:02:58.932Z,84.42
2018-02-05T12:03:58.919Z,85.65
2018-02-05T12:04:58.906Z,85.84
2018-02-05T12:05:58.914Z,86.69
2018-02-05T12:06:58.879Z,88.68
2018-02-05T12:07:59.123Z,88.54
2018-02-05T12:08:58.602Z,89.49
2018-02-05T12:09:58.588Z,89.44
2018-02-05T12:10:58.845Z,90.06
2018-02-05T12:11:58.810Z,90.58
2018-02-05T12:12:58.799Z,90.67
2018-02-05T12:13:58.787Z,90.95
2018-02-05T12:14:58.772Z,91.81
2018-02-05T12:15:58.757Z,88.96
2018-02-05T12:16:58.749Z,88.02
2018-02-05T12:17:58.731Z,88.3
2018-02-05T12:18:58.713Z,85.84
2018-02-05T12:19:58.451Z,87.07
2018-02-05T12:20:58.434Z,87.16
2018-02-05T12:21:58.676Z,87.26
2018-02-05T12:22:58.657Z,88.3
2018-02-05T12:23:58.645Z,89.44
2018-02-05T12:24:58.631Z,90.01
2018-02-05T12:25:58.617Z,89.86
2018-02-05T12:26:58.602Z,90.15
2018-02-05T12:27:58.587Z,90.43
2018-02-05T12:28:58.576Z,91.09
2018-02-05T12:29:58.569Z,91.09
2018-02-05T12:30:58.549Z,90.53
2018-02-05T12:31:58.566Z,89.77
2018-02-05T12:32:58.526Z,89.11
2018-02-05T12:33:58.524Z,87.25
2018-02-05T12:34:58.499Z,86.49
2018-02-05T12:35:58.485Z,86.59
2018-02-05T12:36:58.469Z,85.74
2018-02-05T12:37:58.514Z,87.02
2018-02-05T12:38:58.447Z,84.27
2018-02-05T12:39:58.438Z,83.51
2018-02-05T12:40:58.490Z,82.37
2018-02-05T12:41:58.402Z,81.62
2018-02-05T12:42:58.391Z,82.24
2018-02-05T12:43:58.379Z,83.85
2018-02-05T12:44:58.375Z,85.17
2018-02-05T12:45:58.351Z,86.5
2018-02-05T12:46:58.336Z,86.98
2018-02-05T12:47:58.323Z,86.69
2018-02-05T12:48:58.312Z,85.65
2018-02-05T12:49:58.299Z,87.35
2018-02-05T12:50:58.292Z,88.4
2018-02-05T12:51:58.276Z,88.49
2018-02-05T12:52:58.268Z,87.16
2018-02-05T12:53:58.270Z,86.98
2018-02-05T12:54:58.227Z,87.54
2018-02-05T12:55:58.216Z,88.02
2018-02-05T12:56:57.947Z,88.02
2018-02-05T12:57:58.186Z,88.87